Current Conditions

Updated: 30-Jul-2016 02:05 AM  
Summary / Temperature Wind Rain






Feels like: 79°F

1-hour difference
1.9°F 1.9°F colder than last hour.

24-hour difference
1.6°F1.6°F warmer than yesterday at this time.

  Today Yesterday
High: 83.6°F
12:00 AM
109.2°F
5:33 PM
Low: 79.0°F
2:04 AM
71.5°F
6:01 AM
Calm SW
0.0
Gust:  0.0 mph
0 Beaufort - Calm

Today: 0.0 - 2:40 PM
Month: 9.2 mph - Jul 3
Rain Today: 0.00 in
Current Rate (/hr): 0.000 in
Max Rate (/hr):
Rain Yesterday: 0.00 in
Storm Rain: 0.00 in
This Month: 0.00 in
Season Total: 0.00 in
Last Rain Event: 48 days ago
Humidity / Barometer Sun / Moon
Humidity: 55 Increased 2.0% in the last hour.
Dew Point: 61.5°F Decreased 0.6°F in the last hour.
Barometer: 29.671 inHg  
Baro Trend: Steady
Sunrise: 6:02 AM
Sunset: 8:03 PM
Moonrise: 2:58 AM
Moonset: 4:15 PM
Sky Conditions UV Index
Summary: Clear
Visibility: 10 miles
Clouds: None
KPTV - 1:56 AM PDT
Current: 0.0  None 
Saturday: 10.2  Very High 
Sunday: 9.7  Very High 
Air Quality Fire Danger
 Moderate 
Ozone 33 ppb
PM 2.5 17 μg/m3
2:00 AM PDT
Current: 15  Low 

Local Alerts Local Forecast
Local NWS Alerts
Today

Areas of
Smoke
High 108
Tonight

Areas of
Smoke
Low 72
Sun

Areas of
Smoke
High 104
Sun night

Areas of
Smoke
Low 70
Mon

Mostly
Sunny
High 102
Mon night

Clear

Low 70
Tue

Mostly
Sunny
High 100

Local Radar Local Satellite Neighborhood Cam Sky Cam
Local Radar Local Satellite Neighborhood Cam Sky Cam


Nearby Personal Stations

Weather Underground PWS KCAPORTE11 Weather Underground PWS KCAPORTE5 Weather Underground PWS KCAPORTE8

Nearby Airport Stations

KPTV - Porterville, California, USA
Distance from station: SSW 4mi, 7km
Updated: Sat, 30-Jul-2016 1:56am PDT
Clear
Clear
 Wind from SSE
Wind: SSE 6 mph , 9 km/h
Temperature: 75°F , 24°C
Dew Point: 55°F , 13°C
Humidity: 50%
Barometer: 29.74 inHg , 1007.1 hPa
Clouds: Clear
Visibility: 10 miles , 16 km
2016/07/30 08:56 KPTV 300856Z AUTO 15005KT 10SM CLR 24/13 A2974 RMK AO2 SLP074 T02440133 50001
KVIS - Visalia, California, USA
Distance from station: NW 27mi, 43km
Updated: Sat, 30-Jul-2016 1:56am PDT
Clear
Clear
 Wind from NW
Wind: NW 6 mph , 9 km/h
Temperature: 79°F , 26°C
Dew Point: 61°F , 16°C
Humidity: 54%
Barometer: 29.73 inHg , 1006.8 hPa
Clouds: Clear
Visibility: 10 miles , 16 km
2016/07/30 08:56 KVIS 300856Z AUTO 32005KT 10SM CLR 26/16 A2973 RMK AO2 SLP068 T02610156 50002

Metar display script from Saratoga-Weather.org



Visitor Map